Time;durP1;ratioP1;P1;durP2;ratioP2;P2;SDS_P1;SDS_P2;PMS_P1;PMS_P2;Temp;Humidity;BMP_temperature;BMP_pressure;BME280_temperature;BME280_humidity;BME280_pressure;Samples;Min_cycle;Max_cycle;Signal;HPM_P1;HPM_P2
2021/01/13 00:01:51;;;;;;;20.38;13.65;;;;;;;;;;5074378;28;20451;-50
2021/01/13 00:04:17;;;;;;;19.17;13.80;;;;;;;;;;5074065;28;20179;-49
2021/01/13 00:06:43;;;;;;;19.50;13.10;;;;;;;;;;5070476;28;20185;-50
2021/01/13 00:09:09;;;;;;;18.08;12.57;;;;;;;;;;5073460;28;20257;-50
2021/01/13 00:11:35;;;;;;;17.75;11.93;;;;;;;;;;5074748;28;20190;-49
2021/01/13 00:14:01;;;;;;;18.48;12.18;;;;;;;;;;5074244;28;20209;-49
2021/01/13 00:16:27;;;;;;;17.52;11.60;;;;;;;;;;5073573;28;20556;-49
2021/01/13 00:18:53;;;;;;;15.45;10.35;;;;;;;;;;5067829;28;20170;-49
2021/01/13 00:21:19;;;;;;;13.98;10.60;;;;;;;;;;5071761;28;20577;-49
2021/01/13 00:23:45;;;;;;;15.27;10.60;;;;;;;;;;5070871;28;20198;-49
2021/01/13 00:26:19;;;;;;;13.25;9.77;;;;;;;;;;5073754;28;20216;-49
2021/01/13 00:28:45;;;;;;;11.93;9.10;;;;;;;;;;5072865;28;20182;-50
2021/01/13 00:31:12;;;;;;;14.55;9.70;;;;;;;;;;5074201;28;20243;-48
2021/01/13 00:33:38;;;;;;;12.10;8.90;;;;;;;;;;5074380;28;20193;-49
2021/01/13 00:36:04;;;;;;;13.23;8.70;;;;;;;;;;5073913;28;20174;-48
2021/01/13 00:38:30;;;;;;;12.70;8.00;;;;;;;;;;5061903;28;20187;-49
2021/01/13 00:40:56;;;;;;;13.10;8.43;;;;;;;;;;5063301;28;20193;-49
2021/01/13 00:43:22;;;;;;;11.23;7.78;;;;;;;;;;5076551;28;20195;-50
2021/01/13 00:45:48;;;;;;;9.95;7.18;;;;;;;;;;5077824;28;20189;-49
2021/01/13 00:48:14;;;;;;;11.95;7.72;;;;;;;;;;5076977;28;20554;-49
2021/01/13 00:50:39;;;;;;;12.40;6.90;;;;;;;;;;5077599;28;20438;-49
2021/01/13 00:53:07;;;;;;;9.40;6.63;;;;;;;;;;5077647;28;20193;-49
2021/01/13 00:55:33;;;;;;;9.20;6.45;;;;;;;;;;5075849;28;20308;-49
2021/01/13 00:57:59;;;;;;;8.85;6.57;;;;;;;;;;5070069;28;20265;-49
2021/01/13 01:00:25;;;;;;;9.68;6.78;;;;;;;;;;5090689;28;20183;-49
2021/01/13 01:02:51;;;;;;;8.70;6.30;;;;;;;;;;5091679;28;20206;-49
2021/01/13 01:05:17;;;;;;;8.90;6.38;;;;;;;;;;5084826;28;20450;-49
2021/01/13 01:07:44;;;;;;;8.30;5.72;;;;;;;;;;5076787;28;20182;-49
2021/01/13 01:10:11;;;;;;;8.13;5.85;;;;;;;;;;5075316;28;20171;-49
2021/01/13 01:12:37;;;;;;;8.27;5.20;;;;;;;;;;5077889;28;20444;-49
2021/01/13 01:15:03;;;;;;;8.68;5.60;;;;;;;;;;5076771;28;20171;-49
2021/01/13 01:17:29;;;;;;;7.78;5.22;;;;;;;;;;5071095;28;20377;-49
2021/01/13 01:19:55;;;;;;;7.20;5.25;;;;;;;;;;5073756;28;20508;-49
2021/01/13 01:22:21;;;;;;;7.70;5.10;;;;;;;;;;5077193;28;20596;-49
2021/01/13 01:24:47;;;;;;;6.28;4.55;;;;;;;;;;5076612;28;20175;-49
2021/01/13 01:27:13;;;;;;;6.90;4.80;;;;;;;;;;5074953;28;20181;-49
2021/01/13 01:29:39;;;;;;;7.22;4.75;;;;;;;;;;5076421;28;20300;-49
2021/01/13 01:32:06;;;;;;;6.28;4.07;;;;;;;;;;5077580;28;20202;-49
2021/01/13 01:34:32;;;;;;;5.72;4.45;;;;;;;;;;5077118;28;20189;-49
2021/01/13 01:36:58;;;;;;;4.70;3.72;;;;;;;;;;5077339;28;20178;-49
2021/01/13 01:39:24;;;;;;;4.85;4.10;;;;;;;;;;5077010;28;20293;-49
2021/01/13 01:41:50;;;;;;;5.95;4.15;;;;;;;;;;5076059;28;20952;-50
2021/01/13 01:44:16;;;;;;;6.10;4.10;;;;;;;;;;5056633;28;20761;-49
2021/01/13 01:46:44;;;;;;;5.78;4.05;;;;;;;;;;5067599;28;20547;-49
2021/01/13 01:49:11;;;;;;;7.10;4.28;;;;;;;;;;5075847;28;20190;-49
2021/01/13 01:51:59;;;;;;;6.07;3.70;;;;;;;;;;5078979;28;20575;-49
2021/01/13 01:54:26;;;;;;;5.70;3.85;;;;;;;;;;5071811;28;20174;-50
2021/01/13 01:56:54;;;;;;;4.93;3.35;;;;;;;;;;5075969;28;20179;-49
2021/01/13 01:59:31;;;;;;;4.15;3.20;;;;;;;;;;5064793;28;20174;-50
2021/01/13 02:01:59;;;;;;;5.22;3.20;;;;;;;;;;5066014;28;20178;-48
2021/01/13 02:04:29;;;;;;;4.10;3.10;;;;;;;;;;5076260;28;20189;-49
2021/01/13 02:06:58;;;;;;;4.05;2.60;;;;;;;;;;5076025;28;20216;-49
2021/01/13 02:09:28;;;;;;;4.15;3.13;;;;;;;;;;5075334;28;20175;-48
2021/01/13 02:11:55;;;;;;;4.38;3.00;;;;;;;;;;5072615;28;20191;-49
2021/01/13 02:14:22;;;;;;;4.53;3.05;;;;;;;;;;5068470;28;20442;-49
2021/01/13 02:16:49;;;;;;;4.78;3.20;;;;;;;;;;5076602;28;20604;-49
2021/01/13 02:19:31;;;;;;;3.53;2.60;;;;;;;;;;5076389;28;20281;-49
2021/01/13 02:22:03;;;;;;;4.10;2.90;;;;;;;;;;5075060;28;20877;-50
2021/01/13 02:24:49;;;;;;;3.13;2.65;;;;;;;;;;5057909;28;20179;-49
2021/01/13 02:27:44;;;;;;;3.65;2.83;;;;;;;;;;5057068;28;20171;-49
2021/01/13 02:30:12;;;;;;;4.22;2.70;;;;;;;;;;4985902;28;20186;-49
2021/01/13 02:32:45;;;;;;;3.78;2.47;;;;;;;;;;5074077;28;20259;-49
2021/01/13 02:35:19;;;;;;;4.05;2.53;;;;;;;;;;5071847;28;20659;-49
2021/01/13 02:38:02;;;;;;;3.30;2.55;;;;;;;;;;5068877;28;20197;-49
2021/01/13 02:40:29;;;;;;;3.55;2.30;;;;;;;;;;5076111;28;20600;-49
2021/01/13 02:43:05;;;;;;;2.92;2.00;;;;;;;;;;5074387;28;20205;-49
2021/01/13 02:45:35;;;;;;;2.55;2.00;;;;;;;;;;5070750;28;20166;-49
2021/01/13 02:48:05;;;;;;;2.67;2.00;;;;;;;;;;5075334;28;20179;-49
2021/01/13 02:50:32;;;;;;;2.95;2.03;;;;;;;;;;5075165;28;20462;-50
2021/01/13 02:53:10;;;;;;;2.20;1.90;;;;;;;;;;5064554;28;20209;-49
2021/01/13 02:55:56;;;;;;;3.08;2.22;;;;;;;;;;5075077;28;20227;-49
2021/01/13 02:58:27;;;;;;;3.55;2.05;;;;;;;;;;5061603;28;20277;-50
2021/01/13 03:00:53;;;;;;;3.20;2.17;;;;;;;;;;5074365;28;20187;-49
2021/01/13 03:03:20;;;;;;;2.95;1.90;;;;;;;;;;5075150;28;20214;-49
2021/01/13 03:05:46;;;;;;;3.72;1.90;;;;;;;;;;5074813;28;20167;-50
2021/01/13 03:08:13;;;;;;;2.88;1.85;;;;;;;;;;5075087;28;20163;-49
2021/01/13 03:10:40;;;;;;;2.35;1.80;;;;;;;;;;5067871;28;20175;-49
2021/01/13 03:13:07;;;;;;;3.05;1.85;;;;;;;;;;5055758;28;20167;-49
2021/01/13 03:15:34;;;;;;;2.85;1.77;;;;;;;;;;5055115;28;20224;-49
2021/01/13 03:18:00;;;;;;;2.65;1.85;;;;;;;;;;5063243;28;20286;-50
2021/01/13 03:20:45;;;;;;;2.17;1.70;;;;;;;;;;5069362;28;20273;-50
2021/01/13 03:23:16;;;;;;;2.53;1.67;;;;;;;;;;5055246;28;20581;-49
2021/01/13 03:25:49;;;;;;;1.70;1.60;;;;;;;;;;5055500;28;20403;-49
2021/01/13 03:28:16;;;;;;;2.95;1.85;;;;;;;;;;5067694;28;20207;-49
2021/01/13 03:30:43;;;;;;;1.58;1.48;;;;;;;;;;5062562;28;20188;-50
2021/01/13 03:33:17;;;;;;;2.78;1.88;;;;;;;;;;5066101;28;20194;-49
2021/01/13 03:35:44;;;;;;;1.70;1.55;;;;;;;;;;5074154;28;20186;-49
2021/01/13 03:38:15;;;;;;;1.70;1.50;;;;;;;;;;5074216;28;20178;-49
2021/01/13 03:40:42;;;;;;;2.20;1.50;;;;;;;;;;5073405;28;20182;-50
2021/01/13 03:43:15;;;;;;;3.03;1.30;;;;;;;;;;5063166;28;20578;-49
2021/01/13 03:45:42;;;;;;;1.77;1.40;;;;;;;;;;5068228;28;20214;-50
2021/01/13 03:48:25;;;;;;;1.48;1.33;;;;;;;;;;5073745;28;20210;-50
2021/01/13 03:50:51;;;;;;;2.33;1.50;;;;;;;;;;5071024;28;20200;-49
2021/01/13 03:53:18;;;;;;;1.95;1.30;;;;;;;;;;5076184;28;20414;-49
2021/01/13 03:55:44;;;;;;;1.92;1.35;;;;;;;;;;5074230;28;20261;-49
2021/01/13 03:58:29;;;;;;;1.40;1.05;;;;;;;;;;5074240;28;20178;-49
2021/01/13 04:01:05;;;;;;;1.50;1.30;;;;;;;;;;5070695;28;20185;-50
2021/01/13 04:03:31;;;;;;;1.48;1.27;;;;;;;;;;5063351;28;20239;-48
2021/01/13 04:06:04;;;;;;;1.35;1.25;;;;;;;;;;5074229;28;21054;-49
2021/01/13 04:08:44;;;;;;;2.05;1.25;;;;;;;;;;5068590;28;20182;-50
2021/01/13 04:11:14;;;;;;;1.45;1.05;;;;;;;;;;5063957;28;20261;-50
2021/01/13 04:13:41;;;;;;;1.98;1.33;;;;;;;;;;5070497;28;20839;-49
2021/01/13 04:16:08;;;;;;;2.97;1.42;;;;;;;;;;5072545;28;20741;-49
2021/01/13 04:18:35;;;;;;;1.17;1.02;;;;;;;;;;5072459;28;20185;-49
2021/01/13 04:21:01;;;;;;;1.70;1.17;;;;;;;;;;5064566;28;20764;-49
2021/01/13 04:23:28;;;;;;;1.30;1.00;;;;;;;;;;5068446;28;20206;-49
2021/01/13 04:25:54;;;;;;;1.50;1.20;;;;;;;;;;5073967;28;20206;-49
2021/01/13 04:28:20;;;;;;;2.00;1.15;;;;;;;;;;5069322;28;20179;-49
2021/01/13 04:30:46;;;;;;;0.90;0.90;;;;;;;;;;5068231;28;20185;-49
2021/01/13 04:33:12;;;;;;;1.10;1.00;;;;;;;;;;5072240;28;20217;-49
2021/01/13 04:35:38;;;;;;;1.33;1.00;;;;;;;;;;5070552;28;20259;-50
2021/01/13 04:38:04;;;;;;;2.40;1.13;;;;;;;;;;5072576;28;20543;-49
2021/01/13 04:40:38;;;;;;;1.67;1.20;;;;;;;;;;5063720;28;20179;-49
2021/01/13 04:43:04;;;;;;;1.67;0.95;;;;;;;;;;5065216;28;20194;-49
2021/01/13 04:45:56;;;;;;;1.15;0.95;;;;;;;;;;5067521;28;20175;-49
2021/01/13 04:48:22;;;;;;;0.88;0.85;;;;;;;;;;5052835;28;20265;-49
2021/01/13 04:50:50;;;;;;;1.23;0.82;;;;;;;;;;5063519;28;20179;-48
2021/01/13 04:53:16;;;;;;;1.80;1.00;;;;;;;;;;5068803;28;20262;-49
2021/01/13 04:55:55;;;;;;;1.17;0.80;;;;;;;;;;5073296;28;20178;-50
2021/01/13 04:58:21;;;;;;;1.05;0.95;;;;;;;;;;5070655;28;20664;-49
2021/01/13 05:01:06;;;;;;;1.38;0.90;;;;;;;;;;5068075;28;20265;-49
2021/01/13 05:03:35;;;;;;;1.58;1.15;;;;;;;;;;5073502;28;20281;-48
2021/01/13 05:06:10;;;;;;;2.40;0.98;;;;;;;;;;5073925;28;20166;-50
2021/01/13 05:08:40;;;;;;;1.55;0.93;;;;;;;;;;5064019;28;20187;-50
2021/01/13 05:11:06;;;;;;;8.63;1.25;;;;;;;;;;5071519;28;20166;-49
2021/01/13 05:13:35;;;;;;;3.22;1.05;;;;;;;;;;5073733;28;20641;-49
2021/01/13 05:16:06;;;;;;;6.85;1.45;;;;;;;;;;5073184;28;20557;-49
2021/01/13 05:18:38;;;;;;;6.68;1.77;;;;;;;;;;5072703;28;20170;-50
2021/01/13 05:21:16;;;;;;;6.22;2.10;;;;;;;;;;5064957;28;20515;-50
2021/01/13 05:23:44;;;;;;;10.00;2.80;;;;;;;;;;5069610;28;20202;-50
2021/01/13 05:26:16;;;;;;;10.43;2.63;;;;;;;;;;5073593;28;20256;-50
2021/01/13 05:28:52;;;;;;;8.32;2.33;;;;;;;;;;5066706;28;20233;-49
2021/01/13 05:31:23;;;;;;;11.43;2.92;;;;;;;;;;5075627;28;20216;-49
2021/01/13 05:33:49;;;;;;;8.63;2.67;;;;;;;;;;5077512;28;20172;-49
2021/01/13 05:36:18;;;;;;;12.05;2.72;;;;;;;;;;5076694;28;20254;-49
2021/01/13 05:38:50;;;;;;;8.45;2.55;;;;;;;;;;5068223;28;20253;-50
2021/01/13 05:41:16;;;;;;;7.13;2.60;;;;;;;;;;5075119;28;20183;-49
2021/01/13 05:43:43;;;;;;;9.73;2.70;;;;;;;;;;5076477;28;20594;-50
2021/01/13 05:46:11;;;;;;;6.90;2.42;;;;;;;;;;5076956;28;20170;-50
2021/01/13 05:48:40;;;;;;;9.32;2.80;;;;;;;;;;5076360;28;20257;-49
2021/01/13 05:51:06;;;;;;;6.60;2.45;;;;;;;;;;5075712;28;20576;-49
2021/01/13 05:53:32;;;;;;;8.05;2.65;;;;;;;;;;5084460;28;20186;-50
2021/01/13 05:56:01;;;;;;;6.47;2.80;;;;;;;;;;5076445;28;20190;-50
2021/01/13 05:58:28;;;;;;;7.90;2.58;;;;;;;;;;5075486;28;20460;-49
2021/01/13 06:00:55;;;;;;;3.88;2.00;;;;;;;;;;5076412;28;20175;-50
2021/01/13 06:03:22;;;;;;;5.35;2.20;;;;;;;;;;5071902;28;20210;-49
2021/01/13 06:05:55;;;;;;;6.53;1.95;;;;;;;;;;5076373;28;20514;-50
2021/01/13 06:08:25;;;;;;;7.63;2.17;;;;;;;;;;5070175;28;20251;-49
2021/01/13 06:10:55;;;;;;;4.10;1.83;;;;;;;;;;5068024;28;20171;-49
2021/01/13 06:13:27;;;;;;;6.22;2.03;;;;;;;;;;5076012;28;20194;-50
2021/01/13 06:15:57;;;;;;;4.80;1.83;;;;;;;;;;5074489;28;20265;-49
2021/01/13 06:18:23;;;;;;;5.82;1.73;;;;;;;;;;5075894;28;20182;-50
2021/01/13 06:20:49;;;;;;;3.35;1.75;;;;;;;;;;5071477;28;20233;-50
2021/01/13 06:23:16;;;;;;;4.63;1.85;;;;;;;;;;5067605;28;20504;-49
2021/01/13 06:25:43;;;;;;;5.72;1.77;;;;;;;;;;5075141;28;20271;-49
2021/01/13 06:28:24;;;;;;;3.22;1.80;;;;;;;;;;5071998;28;20203;-49
2021/01/13 06:31:07;;;;;;;5.25;1.90;;;;;;;;;;5066351;28;20254;-49
2021/01/13 06:33:35;;;;;;;4.05;1.70;;;;;;;;;;5071153;28;20492;-49
2021/01/13 06:36:13;;;;;;;5.72;2.10;;;;;;;;;;5075526;28;20182;-49
2021/01/13 06:38:47;;;;;;;4.35;1.88;;;;;;;;;;5075434;28;20221;-49
2021/01/13 06:41:13;;;;;;;4.38;2.15;;;;;;;;;;5074706;28;20183;-50
2021/01/13 06:43:55;;;;;;;4.72;1.90;;;;;;;;;;5076105;28;20465;-49
2021/01/13 06:46:21;;;;;;;5.85;1.90;;;;;;;;;;5055709;28;20175;-49
2021/01/13 06:48:47;;;;;;;3.63;1.52;;;;;;;;;;5071707;28;20224;-49
2021/01/13 06:51:16;;;;;;;2.47;1.42;;;;;;;;;;5073657;28;20178;-49
2021/01/13 06:53:42;;;;;;;4.13;1.50;;;;;;;;;;5078456;28;20213;-49
2021/01/13 06:56:11;;;;;;;3.25;1.52;;;;;;;;;;5067697;28;20187;-48
2021/01/13 06:58:37;;;;;;;4.25;2.00;;;;;;;;;;5063707;28;20175;-49
2021/01/13 07:01:04;;;;;;;4.45;1.38;;;;;;;;;;5067813;28;20183;-49
2021/01/13 07:03:31;;;;;;;2.70;1.45;;;;;;;;;;5063358;28;20214;-49
2021/01/13 07:05:57;;;;;;;3.85;1.40;;;;;;;;;;5075047;28;20179;-49
2021/01/13 07:08:23;;;;;;;3.88;1.63;;;;;;;;;;5061549;28;20600;-49
2021/01/13 07:11:00;;;;;;;3.55;1.48;;;;;;;;;;5073980;28;20170;-49
2021/01/13 07:13:27;;;;;;;3.13;1.42;;;;;;;;;;5067686;28;20433;-49
2021/01/13 07:15:54;;;;;;;4.20;1.60;;;;;;;;;;5074770;28;20197;-50
2021/01/13 07:18:20;;;;;;;3.67;1.20;;;;;;;;;;5071960;28;20499;-49
2021/01/13 07:20:48;;;;;;;2.65;1.20;;;;;;;;;;5074052;28;20273;-50
2021/01/13 07:23:15;;;;;;;3.38;1.40;;;;;;;;;;5075287;28;20239;-49
2021/01/13 07:25:50;;;;;;;2.88;1.33;;;;;;;;;;5074275;28;20584;-49
2021/01/13 07:28:17;;;;;;;3.38;1.40;;;;;;;;;;5075327;28;20324;-49
2021/01/13 07:30:44;;;;;;;1.70;1.23;;;;;;;;;;5074152;28;20311;-49
2021/01/13 07:33:14;;;;;;;3.35;1.20;;;;;;;;;;5066987;28;20239;-50
2021/01/13 07:35:44;;;;;;;2.60;1.40;;;;;;;;;;5074304;28;20190;-49
2021/01/13 07:38:13;;;;;;;1.83;1.10;;;;;;;;;;5074971;28;20182;-49
2021/01/13 07:40:45;;;;;;;2.47;1.10;;;;;;;;;;5074213;28;20186;-50
2021/01/13 07:43:11;;;;;;;2.47;1.10;;;;;;;;;;5066613;28;20653;-49
2021/01/13 07:45:40;;;;;;;3.78;1.45;;;;;;;;;;5073918;28;20179;-50
2021/01/13 07:48:12;;;;;;;2.17;1.15;;;;;;;;;;5074378;28;20265;-50
2021/01/13 07:50:46;;;;;;;1.98;1.20;;;;;;;;;;5068588;28;20182;-50
2021/01/13 07:53:32;;;;;;;3.10;1.17;;;;;;;;;;5077646;28;20187;-50
2021/01/13 07:56:02;;;;;;;2.22;1.08;;;;;;;;;;5073268;28;20244;-50
2021/01/13 07:58:30;;;;;;;2.00;0.98;;;;;;;;;;5074755;28;20196;-49
2021/01/13 08:00:59;;;;;;;2.80;1.20;;;;;;;;;;5074211;28;20193;-49
2021/01/13 08:03:31;;;;;;;2.53;1.15;;;;;;;;;;5056229;28;20605;-49
2021/01/13 08:06:16;;;;;;;2.90;1.27;;;;;;;;;;5073788;28;20600;-49
2021/01/13 08:08:48;;;;;;;3.63;1.20;;;;;;;;;;5074652;28;20167;-49
2021/01/13 08:11:23;;;;;;;2.30;1.20;;;;;;;;;;5073048;28;20179;-50
2021/01/13 08:14:04;;;;;;;2.10;1.00;;;;;;;;;;5059644;28;20265;-49
2021/01/13 08:16:49;;;;;;;3.00;1.38;;;;;;;;;;5072898;28;20197;-49
2021/01/13 08:19:35;;;;;;;2.58;1.20;;;;;;;;;;5073128;28;20193;-49
2021/01/13 08:22:01;;;;;;;3.42;1.52;;;;;;;;;;5071859;28;20170;-49
2021/01/13 08:24:33;;;;;;;2.00;1.13;;;;;;;;;;5072584;28;20167;-49
2021/01/13 08:26:59;;;;;;;1.42;1.00;;;;;;;;;;5072765;28;20166;-49
2021/01/13 08:29:33;;;;;;;1.70;0.80;;;;;;;;;;5073255;28;20171;-49
2021/01/13 08:32:06;;;;;;;1.63;1.05;;;;;;;;;;5065261;28;20212;-49
2021/01/13 08:34:45;;;;;;;1.52;0.93;;;;;;;;;;5072704;28;20177;-50
2021/01/13 08:37:12;;;;;;;1.50;0.90;;;;;;;;;;5072921;28;20178;-50
2021/01/13 08:39:38;;;;;;;2.45;0.90;;;;;;;;;;5073163;28;20194;-50
2021/01/13 08:42:24;;;;;;;2.03;0.95;;;;;;;;;;5073019;28;20607;-50
2021/01/13 08:44:52;;;;;;;2.38;1.20;;;;;;;;;;5072648;28;20189;-50
2021/01/13 08:47:19;;;;;;;3.20;1.10;;;;;;;;;;5074076;28;20241;-49
2021/01/13 08:49:45;;;;;;;2.03;0.93;;;;;;;;;;5073727;28;20228;-50
2021/01/13 08:52:12;;;;;;;2.08;1.13;;;;;;;;;;5081483;28;20460;-49
2021/01/13 08:54:42;;;;;;;2.80;1.15;;;;;;;;;;5079605;28;20235;-50
2021/01/13 08:57:08;;;;;;;1.70;0.93;;;;;;;;;;5073972;28;20166;-50
2021/01/13 08:59:44;;;;;;;2.45;1.23;;;;;;;;;;5074122;28;20241;-50
2021/01/13 09:02:14;;;;;;;2.95;1.00;;;;;;;;;;5072376;28;20170;-50
2021/01/13 09:04:52;;;;;;;2.38;0.98;;;;;;;;;;5076352;28;20163;-49
2021/01/13 09:07:23;;;;;;;1.77;1.05;;;;;;;;;;5078189;28;20170;-49
2021/01/13 09:09:55;;;;;;;3.55;1.02;;;;;;;;;;5076958;28;20175;-49
2021/01/13 09:12:28;;;;;;;2.60;1.23;;;;;;;;;;5057655;28;20322;-49
2021/01/13 09:15:09;;;;;;;2.08;0.93;;;;;;;;;;5057558;28;20453;-49
2021/01/13 09:17:39;;;;;;;2.00;1.08;;;;;;;;;;5057760;28;20186;-49
2021/01/13 09:20:06;;;;;;;2.20;1.20;;;;;;;;;;5073337;28;20178;-49
2021/01/13 09:22:50;;;;;;;2.97;0.98;;;;;;;;;;5057016;28;20195;-49
2021/01/13 09:25:16;;;;;;;1.48;0.80;;;;;;;;;;5057201;28;20190;-50
2021/01/13 09:27:47;;;;;;;1.50;0.90;;;;;;;;;;5057200;28;20190;-49
2021/01/13 09:30:26;;;;;;;3.75;1.10;;;;;;;;;;5071979;28;20573;-50
2021/01/13 09:32:53;;;;;;;2.15;1.00;;;;;;;;;;5067770;28;20272;-49
2021/01/13 09:35:30;;;;;;;2.70;1.42;;;;;;;;;;5076794;28;20210;-49
2021/01/13 09:37:58;;;;;;;2.28;1.20;;;;;;;;;;5075244;28;20300;-49
2021/01/13 09:40:44;;;;;;;4.18;1.10;;;;;;;;;;5076592;28;20191;-50
2021/01/13 09:43:23;;;;;;;8.02;1.52;;;;;;;;;;5076233;28;20209;-49
2021/01/13 09:45:49;;;;;;;4.13;1.30;;;;;;;;;;5074409;28;20177;-49
2021/01/13 09:48:18;;;;;;;5.70;1.40;;;;;;;;;;5073535;28;20253;-49
2021/01/13 09:50:45;;;;;;;2.63;1.40;;;;;;;;;;5075697;28;20170;-49
2021/01/13 09:53:13;;;;;;;2.17;1.20;;;;;;;;;;5081477;28;20586;-49
2021/01/13 09:55:40;;;;;;;1.95;1.38;;;;;;;;;;5075335;28;20432;-49
2021/01/13 09:58:16;;;;;;;3.67;1.63;;;;;;;;;;5075744;28;20238;-49
2021/01/13 10:00:42;;;;;;;2.30;1.40;;;;;;;;;;5070917;28;20179;-49
2021/01/13 10:03:10;;;;;;;1.65;1.10;;;;;;;;;;5070306;28;20220;-49
2021/01/13 10:05:37;;;;;;;2.28;1.30;;;;;;;;;;5075122;28;20200;-49
2021/01/13 10:08:03;;;;;;;2.42;1.00;;;;;;;;;;5062081;28;20179;-49
2021/01/13 10:10:29;;;;;;;1.95;1.20;;;;;;;;;;5075896;28;20567;-49
2021/01/13 10:12:57;;;;;;;3.80;1.50;;;;;;;;;;5077008;28;20182;-49
2021/01/13 10:15:23;;;;;;;1.67;1.10;;;;;;;;;;5074994;28;20189;-49
2021/01/13 10:17:49;;;;;;;2.00;1.23;;;;;;;;;;5076882;28;20182;-49
2021/01/13 10:20:21;;;;;;;3.45;1.25;;;;;;;;;;5075238;28;20186;-50
2021/01/13 10:22:48;;;;;;;2.22;1.10;;;;;;;;;;5074176;28;20194;-49
2021/01/13 10:25:24;;;;;;;2.53;1.33;;;;;;;;;;5076026;28;20179;-49
2021/01/13 10:27:50;;;;;;;2.83;1.13;;;;;;;;;;5078400;28;20223;-49
2021/01/13 10:30:16;;;;;;;1.58;1.00;;;;;;;;;;5074385;28;20285;-49
2021/01/13 10:32:46;;;;;;;3.63;1.20;;;;;;;;;;5072130;28;20189;-50
2021/01/13 10:35:13;;;;;;;3.08;1.45;;;;;;;;;;5075992;28;20170;-49
2021/01/13 10:37:49;;;;;;;2.17;1.15;;;;;;;;;;5075885;28;20182;-50
2021/01/13 10:40:18;;;;;;;6.72;1.50;;;;;;;;;;5075901;28;20632;-49
2021/01/13 10:42:44;;;;;;;2.10;1.23;;;;;;;;;;5076510;28;20198;-49
2021/01/13 10:45:12;;;;;;;3.45;1.52;;;;;;;;;;5076306;28;20424;-49
2021/01/13 10:47:39;;;;;;;2.67;1.30;;;;;;;;;;5076278;28;20500;-49
2021/01/13 10:50:06;;;;;;;1.40;1.10;;;;;;;;;;5074920;28;20257;-50
2021/01/13 10:52:36;;;;;;;2.55;1.15;;;;;;;;;;5082512;28;20264;-49
2021/01/13 10:55:02;;;;;;;2.67;1.00;;;;;;;;;;5081939;28;20189;-49
2021/01/13 10:57:32;;;;;;;2.70;1.13;;;;;;;;;;5075789;28;20254;-49
2021/01/13 11:00:09;;;;;;;1.92;1.10;;;;;;;;;;5075845;28;20178;-49
2021/01/13 11:02:35;;;;;;;3.63;1.20;;;;;;;;;;5069792;28;20590;-49
2021/01/13 11:05:02;;;;;;;2.22;1.10;;;;;;;;;;5055290;28;20179;-49
2021/01/13 11:07:39;;;;;;;2.50;1.10;;;;;;;;;;5056106;28;20469;-49
2021/01/13 11:10:06;;;;;;;1.48;1.00;;;;;;;;;;5055862;28;20193;-50
2021/01/13 11:12:32;;;;;;;2.53;1.00;;;;;;;;;;5075445;28;20208;-49
2021/01/13 11:14:58;;;;;;;1.75;1.05;;;;;;;;;;5074816;28;20212;-49
2021/01/13 11:17:25;;;;;;;1.63;1.20;;;;;;;;;;5075002;28;20225;-49
2021/01/13 11:19:54;;;;;;;1.42;1.00;;;;;;;;;;5074928;28;20189;-49
2021/01/13 11:22:21;;;;;;;2.35;1.20;;;;;;;;;;5068098;28;20183;-49
2021/01/13 11:24:47;;;;;;;1.35;1.00;;;;;;;;;;5072750;28;20174;-49
2021/01/13 11:27:22;;;;;;;2.83;1.00;;;;;;;;;;5074728;28;20185;-49
2021/01/13 11:29:53;;;;;;;1.98;0.85;;;;;;;;;;5075209;28;20170;-50
2021/01/13 11:32:20;;;;;;;2.03;1.17;;;;;;;;;;5057439;28;20595;-49
2021/01/13 11:34:51;;;;;;;2.05;1.25;;;;;;;;;;5067909;28;20178;-49
2021/01/13 11:37:19;;;;;;;2.42;1.10;;;;;;;;;;5074820;28;20179;-50
2021/01/13 11:40:05;;;;;;;2.15;1.02;;;;;;;;;;5074808;28;20189;-49
2021/01/13 11:42:50;;;;;;;1.38;0.93;;;;;;;;;;5081827;28;20341;-49
2021/01/13 11:45:20;;;;;;;3.10;1.15;;;;;;;;;;5056118;28;20179;-50
2021/01/13 11:47:55;;;;;;;1.40;1.13;;;;;;;;;;5057807;28;20214;-49
2021/01/13 11:50:22;;;;;;;6.60;1.65;;;;;;;;;;5068067;28;20558;-49
2021/01/13 11:52:50;;;;;;;3.40;1.35;;;;;;;;;;5073555;28;20257;-50
2021/01/13 11:55:16;;;;;;;5.65;1.02;;;;;;;;;;5054636;28;20183;-48
2021/01/13 11:57:48;;;;;;;3.33;1.40;;;;;;;;;;5066088;28;20186;-49
2021/01/13 12:00:15;;;;;;;2.78;1.42;;;;;;;;;;5055034;28;20206;-49
2021/01/13 12:02:45;;;;;;;4.88;1.15;;;;;;;;;;5064158;28;20218;-49
2021/01/13 12:05:22;;;;;;;3.90;1.60;;;;;;;;;;5070686;28;20166;-50
2021/01/13 12:07:57;;;;;;;2.60;1.27;;;;;;;;;;5059671;28;20183;-49
2021/01/13 12:10:29;;;;;;;1.92;1.35;;;;;;;;;;5055880;28;20224;-50
2021/01/13 12:13:08;;;;;;;2.00;1.13;;;;;;;;;;5060590;28;20179;-50
2021/01/13 12:15:45;;;;;;;2.35;1.30;;;;;;;;;;5067374;28;20193;-49
2021/01/13 12:18:12;;;;;;;2.53;1.27;;;;;;;;;;5065824;28;20462;-50
2021/01/13 12:20:38;;;;;;;3.25;1.00;;;;;;;;;;5070349;28;20167;-50
2021/01/13 12:23:22;;;;;;;3.08;1.30;;;;;;;;;;5069707;28;20224;-50
2021/01/13 12:25:49;;;;;;;2.38;1.20;;;;;;;;;;5072133;28;20189;-49
2021/01/13 12:28:16;;;;;;;1.77;1.20;;;;;;;;;;5073405;28;20554;-49
2021/01/13 12:30:55;;;;;;;3.85;1.40;;;;;;;;;;5071733;28;20206;-49
2021/01/13 12:33:21;;;;;;;5.00;1.52;;;;;;;;;;5072139;28;20178;-49
2021/01/13 12:35:48;;;;;;;3.22;1.45;;;;;;;;;;5071750;28;20261;-49
2021/01/13 12:38:14;;;;;;;2.40;1.00;;;;;;;;;;5067607;28;20197;-49
2021/01/13 12:40:40;;;;;;;4.55;1.30;;;;;;;;;;5067819;28;20182;-49
2021/01/13 12:43:12;;;;;;;2.25;1.10;;;;;;;;;;5067910;28;20207;-49
2021/01/13 12:45:39;;;;;;;3.08;1.10;;;;;;;;;;5074942;28;20185;-49
2021/01/13 12:48:05;;;;;;;2.40;1.10;;;;;;;;;;5077763;28;20200;-49
2021/01/13 12:50:31;;;;;;;2.97;1.17;;;;;;;;;;5069387;28;20235;-49
2021/01/13 12:52:57;;;;;;;3.15;1.20;;;;;;;;;;5067478;28;20628;-49
2021/01/13 12:55:23;;;;;;;3.00;1.10;;;;;;;;;;5057761;28;20258;-50
2021/01/13 12:57:49;;;;;;;2.38;1.40;;;;;;;;;;5071712;28;20187;-49
2021/01/13 13:00:15;;;;;;;1.58;1.10;;;;;;;;;;5078156;28;20194;-49
2021/01/13 13:02:41;;;;;;;3.00;1.38;;;;;;;;;;5073213;28;20280;-50
2021/01/13 13:05:09;;;;;;;2.38;0.95;;;;;;;;;;5057794;28;20550;-49
2021/01/13 13:07:35;;;;;;;2.22;1.13;;;;;;;;;;5074114;28;20170;-50
2021/01/13 13:10:01;;;;;;;1.83;1.20;;;;;;;;;;5065816;28;20171;-50
2021/01/13 13:12:27;;;;;;;4.97;1.40;;;;;;;;;;5062224;28;20189;-50
2021/01/13 13:14:54;;;;;;;2.88;0.90;;;;;;;;;;5071587;28;20258;-49
2021/01/13 13:17:20;;;;;;;5.13;1.15;;;;;;;;;;5075837;28;20166;-49
2021/01/13 13:19:46;;;;;;;4.38;1.20;;;;;;;;;;5075814;28;20193;-49
2021/01/13 13:22:12;;;;;;;3.65;1.20;;;;;;;;;;5075380;28;20167;-49
2021/01/13 13:24:38;;;;;;;3.83;1.30;;;;;;;;;;5077345;28;20241;-49
2021/01/13 13:27:08;;;;;;;5.20;1.50;;;;;;;;;;5076942;28;20663;-49
2021/01/13 13:29:34;;;;;;;3.58;1.38;;;;;;;;;;5077433;28;20170;-50
2021/01/13 13:32:00;;;;;;;3.35;1.55;;;;;;;;;;5072327;28;20628;-50
2021/01/13 13:34:26;;;;;;;2.85;1.45;;;;;;;;;;5076750;28;20621;-49
2021/01/13 13:36:57;;;;;;;4.65;1.20;;;;;;;;;;5076989;28;20245;-49
2021/01/13 13:39:23;;;;;;;3.20;1.20;;;;;;;;;;5077401;28;20197;-50
2021/01/13 13:41:49;;;;;;;4.13;1.33;;;;;;;;;;5076042;28;20187;-50
2021/01/13 13:44:15;;;;;;;3.83;1.30;;;;;;;;;;5076868;28;20214;-48
2021/01/13 13:46:47;;;;;;;4.50;1.40;;;;;;;;;;5077146;28;20178;-50
2021/01/13 13:49:13;;;;;;;2.30;1.08;;;;;;;;;;5076545;28;20213;-50
2021/01/13 13:51:42;;;;;;;3.08;1.20;;;;;;;;;;5075201;28;20227;-50
2021/01/13 13:54:08;;;;;;;3.45;0.90;;;;;;;;;;5062977;28;20183;-49
2021/01/13 13:56:34;;;;;;;2.88;1.25;;;;;;;;;;5056766;28;20182;-50
2021/01/13 13:59:00;;;;;;;4.03;1.08;;;;;;;;;;5075869;28;20186;-50
2021/01/13 14:01:32;;;;;;;2.72;1.02;;;;;;;;;;5075936;28;20175;-49
2021/01/13 14:03:59;;;;;;;3.03;0.95;;;;;;;;;;5076035;28;20215;-49
2021/01/13 14:06:26;;;;;;;3.67;1.45;;;;;;;;;;5076804;28;20170;-50
2021/01/13 14:08:52;;;;;;;3.75;1.17;;;;;;;;;;5067114;28;20191;-49
2021/01/13 14:11:18;;;;;;;3.30;1.25;;;;;;;;;;5067813;28;20250;-50
2021/01/13 14:13:44;;;;;;;1.60;1.15;;;;;;;;;;5074593;28;20836;-48
2021/01/13 14:16:10;;;;;;;2.70;1.25;;;;;;;;;;5075266;28;20185;-50
2021/01/13 14:18:36;;;;;;;1.45;1.10;;;;;;;;;;5076005;28;20465;-49
2021/01/13 14:21:02;;;;;;;3.55;1.10;;;;;;;;;;5074696;28;20206;-50
2021/01/13 14:23:28;;;;;;;3.63;1.05;;;;;;;;;;5073700;28;20221;-49
2021/01/13 14:25:54;;;;;;;3.75;1.10;;;;;;;;;;5058326;28;20180;-49
2021/01/13 14:28:20;;;;;;;2.90;1.10;;;;;;;;;;5069812;28;20210;-49
2021/01/13 14:30:46;;;;;;;1.45;1.10;;;;;;;;;;5075562;28;20175;-50
2021/01/13 14:33:12;;;;;;;2.45;0.90;;;;;;;;;;5075882;28;20178;-49
2021/01/13 14:35:38;;;;;;;2.92;1.00;;;;;;;;;;5076259;28;20181;-49
2021/01/13 14:38:04;;;;;;;1.60;0.93;;;;;;;;;;5076202;28;20202;-49
2021/01/13 14:40:30;;;;;;;5.78;0.98;;;;;;;;;;5076668;28;20174;-49
2021/01/13 14:42:56;;;;;;;1.30;0.90;;;;;;;;;;5070662;28;20209;-49
2021/01/13 14:45:25;;;;;;;2.38;1.10;;;;;;;;;;5075831;28;20178;-50
2021/01/13 14:47:55;;;;;;;1.77;1.00;;;;;;;;;;5076110;28;20174;-48
2021/01/13 14:50:21;;;;;;;1.23;0.90;;;;;;;;;;5075191;28;20580;-48
2021/01/13 14:52:47;;;;;;;2.45;1.30;;;;;;;;;;5075485;28;20175;-48
2021/01/13 14:55:14;;;;;;;1.52;0.93;;;;;;;;;;5067119;28;20186;-50